Latest Weather Observations for Creal Reef

IDQ60801

Issued at 6:35 pm EST Wednesday 27 August 2014 (issued every 30 minutes, with the page automatically refreshed every 10 minutes)

About weather observations | Map of weather stations | Latest weather observations for QLD | Other Formats
Station Details ID: 200736 Name: CREAL REEF Lat: -20.53 Lon: 150.38 Height: 1.7 m
Data from the previous 72 hours. | See also: Recent months for locations in Queensland
Date/Time
EST
Temp
°C
App
Temp
°C
Dew
Point
Rel
Hum
%
Delta-T
°C
Wind Press
QNH
hPa
Press
MSL
hPa
Rain
since 9 am
mm
Dir
 
Spd
km/h
Gust
km/h
Spd
kts
Gust
kts
27/06:30pm 20.6 - - - - SSE 9 13 5 7 1015.2 - -
27/06:20pm 20.5 - - - - SSE 9 11 5 6 1015.1 1015.0 -
27/06:00pm 20.4 - - - - SSE 9 11 5 6 1014.9 - -
27/05:30pm 20.5 - - - - SSW 11 15 6 8 1014.6 - -
27/05:20pm 20.5 - - - - SSW 13 - 7 - - 1014.4 -
27/05:00pm 20.4 - - - - SSW 17 20 9 11 1014.4 - -
27/04:30pm 20.6 - - - - SSW 20 22 11 12 1014.2 - -
27/04:20pm 20.8 - - - - SSW 20 - 11 - - 1014.1 -
27/04:00pm 20.7 - - - - SSW 20 24 11 13 1014.1 - -
27/03:30pm 21.7 - - - - SW 19 22 10 12 1014.2 - -
27/03:20pm 21.7 - - - - WSW 19 - 10 - - 1014.1 -
27/03:00pm 21.6 - - - - W 17 20 9 11 1014.2 - -
27/02:30pm 21.3 - - - - W 17 19 9 10 1014.3 - -
27/02:20pm 21.5 - - - - W 15 - 8 - - 1014.3 -
27/02:00pm 21.2 - - - - W 17 20 9 11 1014.6 - -
27/01:30pm 21.1 - - - - W 15 19 8 10 1014.8 - -
27/01:20pm 21.1 - - - - WSW 17 - 9 - - 1014.8 -
27/01:00pm 21.3 - - - - WSW 19 22 10 12 1015.3 - -
27/12:30pm 21.2 - - - - W 17 20 9 11 1015.6 - -
27/12:20pm 21.3 - - - - W 19 - 10 - - 1015.7 -
27/12:00pm 21.3 - - - - W 17 20 9 11 1016.0 - -
27/11:30am 21.5 - - - - W 17 20 9 11 1016.4 - -
27/11:20am 21.5 - - - - WSW 19 - 10 - - 1016.4 -
27/11:00am 21.5 - - - - W 19 20 10 11 1016.8 - -
27/10:30am 21.6 - - - - W 17 20 9 11 1017.2 - -
27/10:20am 21.7 - - - - W 17 - 9 - - 1017.1 -
27/10:00am 21.6 - - - - W 15 20 8 11 1017.3 - -
27/09:30am 21.8 - - - - W 15 17 8 9 1017.5 - -
27/09:20am 21.8 - - - - W 15 - 8 - - 1017.4 -
27/09:00am 21.6 - - - - W 17 20 9 11 1017.5 - -
27/08:30am 21.8 - - - - W 15 20 8 11 1017.3 - -
27/08:20am 21.7 - - - - W 15 - 8 - - 1017.1 -
27/08:00am 21.7 - - - - W 17 20 9 11 1017.1 - -
27/07:30am 21.6 - - - - W 17 20 9 11 1016.7 - -
27/07:20am 21.6 - - - - W 19 - 10 - - 1016.5 -
27/07:00am 21.4 - - - - W 17 20 9 11 1016.3 - -
27/06:30am 21.1 - - - - W 15 19 8 10 1015.7 - -
27/06:20am 21.0 - - - - W 15 - 8 - - 1015.5 -
27/06:00am 21.0 - - - - W 13 15 7 8 1015.4 - -
27/05:30am 21.0 - - - - W 13 15 7 8 1015.1 - -
27/05:20am 21.2 - - - - WNW 11 - 6 - - 1014.9 -
27/05:00am 21.1 - - - - WNW 11 13 6 7 1015.0 - -
27/04:30am 21.1 - - - - WNW 9 11 5 6 1014.7 - -
27/04:20am 21.1 - - - - W 7 - 4 - - 1014.6 -
27/04:00am 21.1 - - - - NW 6 7 3 4 1014.6 - -
27/03:30am 21.3 - - - - NE 13 15 7 8 1014.4 - -
27/03:20am 21.3 - - - - NNE 15 - 8 - - 1014.3 -
27/03:00am 21.3 - - - - NNE 9 13 5 7 1014.5 - -
27/02:30am 21.3 - - - - NNE 11 13 6 7 1014.8 - -
27/02:20am 21.3 - - - - NE 15 - 8 - - 1014.6 -
27/02:00am 21.3 - - - - NE 15 19 8 10 1014.9 - -
27/01:30am 21.3 - - - - NE 15 17 8 9 1015.3 - -
27/01:20am 21.2 - - - - NE 13 - 7 - - 1015.3 -
27/01:00am 21.2 - - - - NE 13 17 7 9 1015.6 - -
27/12:30am 21.1 - - - - NE 15 17 8 9 1015.9 - -
27/12:20am 21.1 - - - - NE 13 - 7 - - 1016.0 -
27/12:00am 21.1 - - - - NE 17 19 9 10 1016.2 - -
 
Date/Time
EST
Temp
°C
App
Temp
°C
Dew
Point
Rel
Hum
%
Delta-T
°C
Wind Press
QNH
hPa
Press
MSL
hPa
Rain
since 9 am
mm
Dir
 
Spd
km/h
Gust
km/h
Spd
kts
Gust
kts
26/11:30pm 21.1 - - - - NE 17 20 9 11 1016.3 - -
26/11:20pm 20.9 - - - - ENE 20 - 11 - - 1016.2 -
26/11:00pm 20.8 - - - - ENE 19 22 10 12 1016.5 - -
26/10:30pm 20.7 - - - - NE 19 20 10 11 1016.6 - -
26/10:20pm 21.0 - - - - ENE 19 - 10 - - 1016.6 -
26/10:00pm 20.9 - - - - ENE 19 22 10 12 1016.8 - -
26/09:30pm 20.9 - - - - ENE 20 24 11 13 1016.7 - -
26/09:20pm 20.9 - - - - ENE 20 - 11 - - 1016.6 -
26/09:00pm 20.9 - - - - E 20 24 11 13 1016.8 - -
26/08:30pm 20.7 - - - - E 20 22 11 12 1016.7 - -
26/08:20pm 20.9 - - - - E 20 - 11 - - 1016.5 -
26/08:00pm 20.8 - - - - E 20 24 11 13 1016.5 - -
26/07:30pm 20.7 - - - - E 19 22 10 12 1016.2 - -
26/07:20pm 20.6 - - - - E 19 - 10 - - 1016.0 -
26/07:00pm 20.4 - - - - ESE 19 22 10 12 1016.0 - -
26/06:30pm 20.4 - - - - ESE 19 22 10 12 1015.9 - -
26/06:20pm 20.5 - - - - SE 19 - 10 - - 1015.7 -
26/06:00pm 20.7 - - - - SSE 17 20 9 11 1015.7 - -
26/05:30pm 20.6 - - - - S 20 22 11 12 1015.4 - -
26/05:20pm 20.8 - - - - S 20 - 11 - - 1015.2 -
26/05:00pm 20.8 - - - - S 20 24 11 13 1015.1 - -
26/04:30pm 21.1 - - - - S 20 24 11 13 1015.0 - -
26/04:20pm 20.9 - - - - SSE 20 - 11 - - 1014.8 -
26/04:00pm 21.0 - - - - S 22 26 12 14 1014.8 - -
26/03:30pm 21.2 - - - - SSE 19 22 10 12 1014.8 - -
26/03:20pm 21.1 - - - - SSE 20 - 11 - - 1014.6 -
26/03:00pm 21.2 - - - - SSE 20 24 11 13 1014.8 - -
26/02:30pm 21.1 - - - - SSE 19 22 10 12 1015.0 - -
26/02:20pm 21.0 - - - - SSE 19 - 10 - - 1014.9 -
26/02:00pm 21.0 - - - - S 20 26 11 14 1015.1 - -
26/01:30pm 21.0 - - - - S 24 28 13 15 1015.3 - -
26/01:20pm 21.2 - - - - S 24 - 13 - - 1015.4 -
26/01:00pm 21.0 - - - - S 24 28 13 15 1015.7 - -
26/12:30pm 21.3 - - - - S 22 26 12 14 1016.0 - -
26/12:20pm 21.0 - - - - S 24 - 13 - - 1016.0 -
26/12:00pm 21.0 - - - - S 24 28 13 15 1016.5 - -
26/11:30am 21.2 - - - - S 26 30 14 16 1016.9 - -
26/11:20am 21.2 - - - - S 26 - 14 - - 1017.0 -
26/11:00am 21.3 - - - - S 26 30 14 16 1017.4 - -
26/10:30am 21.2 - - - - SSE 24 30 13 16 1017.5 - -
26/10:20am 21.3 - - - - SSE 26 - 14 - - 1017.5 -
26/10:00am 21.3 - - - - SSE 24 32 13 17 1017.7 - -
26/09:30am 21.4 - - - - SSE 24 30 13 16 1017.8 - -
26/09:20am 21.5 - - - - SSE 26 - 14 - - 1017.7 -
26/09:00am 21.3 - - - - SSE 26 30 14 16 1017.7 - -
26/08:30am 21.3 - - - - SSE 28 32 15 17 1017.4 - -
26/08:20am 21.2 - - - - SSE 26 - 14 - - 1017.2 -
26/08:00am 21.2 - - - - SSE 26 32 14 17 1017.1 - -
26/07:30am 21.0 - - - - SSE 26 33 14 18 1016.9 - -
26/07:20am 21.2 - - - - SSE 28 - 15 - - 1016.7 -
26/07:00am 21.1 - - - - SSE 30 33 16 18 1016.7 - -
26/06:30am 20.8 - - - - SSE 26 33 14 18 1016.4 - -
26/06:20am 20.8 - - - - SSE 26 - 14 - - 1016.3 -
26/06:00am 20.9 - - - - SSE 26 33 14 18 1016.0 - -
26/05:30am 20.8 - - - - SSE 26 33 14 18 1015.8 - -
26/05:20am 20.8 - - - - SSE 28 - 15 - - 1015.5 -
26/05:00am 20.8 - - - - SSE 24 30 13 16 1015.5 - -
26/04:30am 20.8 - - - - SSE 26 32 14 17 1015.2 - -
26/04:20am 21.0 - - - - SSE 26 - 14 - - 1015.1 -
26/04:00am 20.9 - - - - SSE 26 33 14 18 1015.3 - -
26/03:30am 21.0 - - - - SSE 28 33 15 18 1015.2 - -
26/03:20am 21.1 - - - - SSE 24 - 13 - - 1015.2 -
26/03:00am 21.3 - - - - SSE 28 33 15 18 1015.5 - -
26/02:30am 21.2 - - - - SSE 26 33 14 18 1015.7 - -
26/02:20am 21.3 - - - - SSE 24 - 13 - - 1015.7 -
26/02:00am 21.5 - - - - SSE 24 32 13 17 1016.0 - -
26/01:30am 21.3 - - - - SSE 24 32 13 17 1016.3 - -
26/01:20am 21.3 - - - - SSE 24 - 13 - - 1016.2 -
26/01:00am 21.3 - - - - SSE 24 32 13 17 1016.4 - -
26/12:30am 21.4 - - - - SSE 26 35 14 19 1016.7 - -
26/12:20am 21.2 - - - - SSE 26 - 14 - - 1016.7 -
26/12:00am 21.3 - - - - SE 24 30 13 16 1017.1 - -
 
Date/Time
EST
Temp
°C
App
Temp
°C
Dew
Point
Rel
Hum
%
Delta-T
°C
Wind Press
QNH
hPa
Press
MSL
hPa
Rain
since 9 am
mm
Dir
 
Spd
km/h
Gust
km/h
Spd
kts
Gust
kts
25/11:30pm 21.5 - - - - SE 24 32 13 17 1017.3 - -
25/11:20pm 21.1 - - - - SE 28 - 15 - - 1017.2 -
25/11:00pm 21.1 - - - - SE 26 30 14 16 1017.3 - -
25/10:30pm 21.1 - - - - SE 28 32 15 17 1017.6 - -
25/10:20pm 21.2 - - - - SE 28 - 15 - - 1017.6 -
25/10:00pm 21.1 - - - - SE 24 28 13 15 1017.9 - -
25/09:30pm 20.8 - - - - SE 26 30 14 16 1018.0 - -
25/09:20pm 20.8 - - - - SE 26 - 14 - - 1018.0 -
25/09:00pm 20.7 - - - - SE 26 30 14 16 1018.1 - -
25/08:30pm 20.8 - - - - SE 26 30 14 16 1018.2 - -
25/08:20pm 20.6 - - - - SE 28 - 15 - - 1018.0 -
25/08:00pm 20.9 - - - - SE 28 33 15 18 1018.0 - -
25/07:30pm 20.7 - - - - SSE 28 35 15 19 1017.6 - -
25/07:20pm 20.6 - - - - SSE 28 - 15 - - 1017.4 -
25/07:00pm 20.7 - - - - SSE 28 35 15 19 1017.3 - -
25/06:30pm 20.8 - - - - SSE 32 39 17 21 1017.3 - -
25/06:20pm 20.8 - - - - SSE 32 - 17 - - 1017.0 -
25/06:00pm 20.7 - - - - SSE 33 39 18 21 1016.9 - -
25/05:30pm 20.9 - - - - S 37 43 20 23 1016.6 - -
25/05:20pm 21.1 - - - - S 37 - 20 - - 1016.4 -
25/05:00pm 21.3 - - - - S 37 43 20 23 1016.3 - -
25/04:30pm 21.3 - - - - S 37 43 20 23 1016.2 - -
25/04:20pm 21.3 - - - - S 37 - 20 - - 1016.0 -
25/04:00pm 20.9 - - - - S 35 41 19 22 1016.2 - -
25/03:30pm 20.9 - - - - S 39 44 21 24 1016.3 - -
25/03:20pm 20.9 - - - - S 35 - 19 - - 1016.1 -
25/03:00pm 20.8 - - - - S 35 41 19 22 1016.5 - -
25/02:30pm 20.8 - - - - S 33 41 18 22 1016.8 - -
25/02:20pm 20.6 - - - - S 35 - 19 - - 1016.7 -
25/02:00pm 20.5 - - - - S 33 41 18 22 1016.9 - -
25/01:30pm 20.4 - - - - S 33 39 18 21 1017.1 - -
25/01:20pm 20.4 - - - - S 33 - 18 - - 1017.1 -
25/01:00pm 20.5 - - - - S 35 43 19 23 1017.4 - -
25/12:30pm 20.5 - - - - S 37 41 20 22 1017.8 - -
25/12:20pm 20.5 - - - - S 37 - 20 - - 1017.8 -
25/12:00pm 20.4 - - - - S 35 41 19 22 1018.3 - -
25/11:30am 20.6 - - - - S 35 41 19 22 1018.6 - -
25/11:20am 20.7 - - - - S 37 - 20 - - 1018.6 -
25/11:00am 20.6 - - - - S 37 44 20 24 1018.9 - -
25/10:30am 20.5 - - - - S 37 44 20 24 1019.3 - -
25/10:20am 20.6 - - - - S 39 - 21 - - 1019.2 -
25/10:00am 20.8 - - - - S 41 46 22 25 1019.3 - -
25/09:30am 20.6 - - - - S 43 50 23 27 1019.4 - -
25/09:20am 20.6 - - - - SSE 41 - 22 - - 1019.3 -
25/09:00am 20.9 - - - - S 39 46 21 25 1019.4 - -
25/08:30am 20.8 - - - - SSE 37 48 20 26 1019.4 - -
25/08:20am 21.1 - - - - SSE 41 - 22 - - 1019.2 -
25/08:00am 20.9 - - - - SSE 43 48 23 26 1019.0 - -
25/07:30am 21.0 - - - - SSE 39 48 21 26 1018.6 - -
25/07:20am 20.9 - - - - SSE 43 - 23 - - 1018.5 -
25/07:00am 20.7 - - - - SSE 41 50 22 27 1018.3 - -
25/06:30am 20.8 - - - - SSE 43 50 23 27 1018.0 - -
25/06:20am 20.6 - - - - SSE 39 - 21 - - 1017.6 -
25/06:00am 20.7 - - - - SSE 39 48 21 26 1017.6 - -
25/05:30am 20.7 - - - - SSE 41 48 22 26 1017.4 - -
25/05:20am 20.6 - - - - SSE 39 - 21 - - 1017.1 -
25/05:00am 20.8 - - - - SSE 44 52 24 28 1017.0 - -
25/04:30am 20.7 - - - - SSE 41 52 22 28 1016.9 - -
25/04:20am 20.8 - - - - SSE 37 - 20 - - 1016.7 -
25/04:00am 20.8 - - - - SSE 37 50 20 27 1016.8 - -
25/03:30am 20.8 - - - - SSE 37 48 20 26 1016.7 - -
25/03:20am 20.8 - - - - SSE 39 - 21 - - 1016.5 -
25/03:00am 20.8 - - - - SSE 39 50 21 27 1016.8 - -
25/02:30am 21.0 - - - - SSE 43 56 23 30 1017.1 - -
25/02:20am 20.9 - - - - SSE 37 - 20 - - 1017.2 -
25/02:00am 21.1 - - - - SSE 41 52 22 28 1017.6 - -
25/01:30am 21.2 - - - - SSE 39 50 21 27 1017.7 - -
25/01:20am 21.2 - - - - SSE 39 - 21 - - 1017.6 -
25/01:00am 21.3 - - - - SSE 41 50 22 27 1017.9 - -
25/12:30am 21.4 - - - - SSE 37 52 20 28 1018.3 - -
25/12:20am 21.4 - - - - SSE 39 - 21 - - 1018.2 -
25/12:00am 21.4 - - - - SSE 39 50 21 27 1018.2 - -
 
Date/Time
EST
Temp
°C
App
Temp
°C
Dew
Point
Rel
Hum
%
Delta-T
°C
Wind Press
QNH
hPa
Press
MSL
hPa
Rain
since 9 am
mm
Dir
 
Spd
km/h
Gust
km/h
Spd
kts
Gust
kts
24/11:30pm 21.5 - - - - SSE 39 50 21 27 1018.4 - -
24/11:20pm 21.5 - - - - SSE 39 - 21 - - 1018.2 -
24/11:00pm 21.4 - - - - SSE 37 48 20 26 1018.4 - -
24/10:30pm 21.3 - - - - SSE 35 46 19 25 1018.5 - -
24/10:20pm 21.4 - - - - SSE 37 - 20 - - 1018.6 -
24/10:00pm 21.1 - - - - SSE 33 44 18 24 1018.8 - -
24/09:30pm 21.2 - - - - SSE 37 44 20 24 1018.9 - -
24/09:20pm 21.1 - - - - SSE 33 - 18 - - 1018.7 -
24/09:00pm 21.0 - - - - SSE 32 41 17 22 1018.9 - -
24/08:30pm 21.0 - - - - SSE 33 46 18 25 1018.9 - -
24/08:27pm 20.5 - - - - SSE 33 46 18 25 1018.9 - -
24/08:20pm 20.7 - - - - SSE 37 - 20 - - 1018.8 -
24/08:00pm 20.3 - - - - S 41 48 22 26 1018.7 - -
24/07:30pm 20.6 - - - - S 43 50 23 27 1018.4 - -
24/07:20pm 20.9 - - - - S 39 - 21 - - 1018.3 -
24/07:00pm 20.7 - - - - S 43 46 23 25 1018.1 - -

Other Formats:

Comma delimited format used in spreadsheet applications
http://www.bom.gov.au/fwo/IDQ60801/IDQ60801.94371.axf

JavaScript Object Notation format (JSON) in row-major order
http://www.bom.gov.au/fwo/IDQ60801/IDQ60801.94371.json